Time;durP1;ratioP1;P1;durP2;ratioP2;P2;SDS_P1;SDS_P2;PMS_P1;PMS_P2;Temp;Humidity;BMP_temperature;BMP_pressure;BME280_temperature;BME280_humidity;BME280_pressure;Samples;Min_cycle;Max_cycle;Signal;HPM_P1;HPM_P2
2023/01/16 00:02:17;;;;;;;6.40;0.80;;;3.30;99.90;;;;;;5005962;28;20152;-73
2023/01/16 00:04:48;;;;;;;3.60;0.60;;;3.30;99.90;;;;;;5004341;28;20365;-72
2023/01/16 00:07:14;;;;;;;2.05;0.57;;;3.30;99.90;;;;;;5001510;28;20052;-73
2023/01/16 00:09:40;;;;;;;2.60;0.70;;;3.30;99.90;;;;;;5006878;28;20495;-73
2023/01/16 00:12:09;;;;;;;1.70;0.77;;;3.30;99.90;;;;;;5005806;28;20457;-74
2023/01/16 00:14:38;;;;;;;2.00;0.50;;;3.30;99.90;;;;;;5005362;28;20046;-74
2023/01/16 00:17:03;;;;;;;1.20;0.57;;;3.40;99.90;;;;;;5002044;28;20025;-72
2023/01/16 00:19:29;;;;;;;3.25;0.68;;;3.40;99.90;;;;;;5006724;28;20364;-73
2023/01/16 00:21:57;;;;;;;4.10;0.52;;;3.40;99.90;;;;;;4992367;28;20394;-74
2023/01/16 00:24:23;;;;;;;1.48;0.60;;;3.40;99.90;;;;;;5008049;28;20125;-74
2023/01/16 00:26:52;;;;;;;3.85;0.70;;;3.40;99.90;;;;;;5002578;28;20109;-74
2023/01/16 00:29:21;;;;;;;2.17;0.70;;;3.40;99.90;;;;;;5008701;28;20101;-74
2023/01/16 00:31:49;;;;;;;2.88;0.60;;;3.50;99.90;;;;;;5005078;28;20104;-73
2023/01/16 00:34:21;;;;;;;2.35;0.60;;;3.50;99.90;;;;;;5006565;28;20023;-73
2023/01/16 00:36:47;;;;;;;3.75;0.80;;;3.50;99.90;;;;;;5005874;28;20064;-73
2023/01/16 00:39:12;;;;;;;3.85;0.82;;;3.50;99.90;;;;;;5005294;28;20042;-73
2023/01/16 00:41:38;;;;;;;1.80;0.60;;;3.50;99.90;;;;;;5008015;28;20058;-72
2023/01/16 00:44:04;;;;;;;10.10;1.05;;;3.50;99.90;;;;;;4989524;28;20034;-73
2023/01/16 00:46:29;;;;;;;3.67;0.80;;;3.50;99.90;;;;;;5005412;28;20022;-74
2023/01/16 00:48:56;;;;;;;3.00;0.60;;;3.50;99.90;;;;;;5007430;28;20105;-74
2023/01/16 00:51:22;;;;;;;2.55;0.68;;;3.50;99.90;;;;;;5009993;28;20552;-73
2023/01/16 00:53:48;;;;;;;5.82;0.98;;;3.60;99.90;;;;;;5007374;28;20018;-73
2023/01/16 00:56:19;;;;;;;2.50;0.60;;;3.60;99.90;;;;;;5007797;28;20076;-73
2023/01/16 00:58:45;;;;;;;5.07;0.90;;;3.50;99.90;;;;;;5010288;28;20499;-73
2023/01/16 01:01:10;;;;;;;3.70;1.20;;;3.60;99.90;;;;;;4990010;28;20084;-72
2023/01/16 01:03:36;;;;;;;4.40;0.90;;;3.60;99.90;;;;;;5008210;28;20038;-73
2023/01/16 01:06:06;;;;;;;3.33;0.77;;;3.60;99.90;;;;;;5007089;28;20022;-72
2023/01/16 01:08:32;;;;;;;5.28;0.70;;;3.60;99.90;;;;;;5008349;28;20022;-74
2023/01/16 01:11:04;;;;;;;1.40;0.55;;;3.60;99.90;;;;;;5009982;28;20022;-73
2023/01/16 01:13:37;;;;;;;3.53;1.23;;;3.60;99.90;;;;;;4995249;28;20026;-72
2023/01/16 01:16:03;;;;;;;1.48;0.70;;;3.60;99.90;;;;;;4994993;28;20124;-73
2023/01/16 01:18:29;;;;;;;1.48;0.55;;;3.50;99.90;;;;;;5004321;28;20113;-73
2023/01/16 01:21:01;;;;;;;3.05;0.80;;;3.60;99.90;;;;;;5008490;28;20030;-74
2023/01/16 01:23:27;;;;;;;2.33;0.57;;;3.50;99.90;;;;;;4996503;28;20084;-74
2023/01/16 01:25:53;;;;;;;1.20;0.60;;;3.50;99.90;;;;;;4994802;28;20026;-73
2023/01/16 01:28:19;;;;;;;2.20;0.73;;;3.50;99.90;;;;;;5017433;23;20056;-79
2023/01/16 01:30:45;;;;;;;2.53;0.60;;;3.50;99.90;;;;;;4990049;28;20027;-79
2023/01/16 01:33:11;;;;;;;1.77;0.40;;;3.50;99.90;;;;;;5005783;28;20035;-79
2023/01/16 01:35:37;;;;;;;4.07;0.60;;;3.50;99.90;;;;;;5006931;28;20029;-80
2023/01/16 01:38:03;;;;;;;5.13;0.60;;;3.40;99.90;;;;;;4988882;28;20057;-79
2023/01/16 01:40:29;;;;;;;16.20;1.15;;;3.40;99.90;;;;;;5005258;28;20454;-79
2023/01/16 01:42:55;;;;;;;4.18;1.10;;;3.40;99.90;;;;;;4986651;28;20022;-79
2023/01/16 01:45:29;;;;;;;2.72;0.95;;;3.40;99.90;;;;;;5008914;28;20116;-79
2023/01/16 01:48:13;;;;;;;4.40;0.65;;;3.40;99.90;;;;;;5008650;28;20387;-80
2023/01/16 01:50:47;;;;;;;7.32;1.17;;;3.40;99.90;;;;;;5006488;28;20029;-79
2023/01/16 01:53:22;;;;;;;2.13;0.50;;;3.40;99.90;;;;;;4987200;28;20057;-79
2023/01/16 01:55:48;;;;;;;3.75;0.50;;;3.40;99.90;;;;;;5006224;28;20034;-79
2023/01/16 01:58:21;;;;;;;2.13;0.60;;;3.30;99.90;;;;;;4990063;28;20104;-79
2023/01/16 02:00:50;;;;;;;4.38;0.70;;;3.30;99.90;;;;;;5005915;28;20045;-78
2023/01/16 02:03:25;;;;;;;3.25;0.60;;;3.40;99.90;;;;;;5005943;28;20022;-79
2023/01/16 02:05:54;;;;;;;3.58;0.55;;;3.30;99.90;;;;;;5006178;28;20029;-78
2023/01/16 02:08:22;;;;;;;1.17;0.50;;;3.30;99.90;;;;;;5006457;28;20049;-79
2023/01/16 02:10:53;;;;;;;2.33;0.50;;;3.30;99.90;;;;;;4990285;28;20686;-79
2023/01/16 02:13:19;;;;;;;1.42;0.57;;;3.30;99.90;;;;;;4989227;28;20014;-79
2023/01/16 02:21:37;;;;;;;3.15;0.60;;;3.20;99.90;;;;;;5006011;28;20533;-79
2023/01/16 02:24:50;;;;;;;4.97;0.60;;;3.20;99.90;;;;;;5007950;28;20113;-78
2023/01/16 02:27:37;;;;;;;4.97;0.90;;;3.20;99.90;;;;;;4965757;28;20035;-79
2023/01/16 02:30:36;;;;;;;0.82;0.50;;;3.20;99.90;;;;;;4985275;28;20038;-78
2023/01/16 02:33:15;;;;;;;3.08;0.70;;;3.10;99.90;;;;;;5007103;28;20018;-79
2023/01/16 02:35:43;;;;;;;2.20;0.73;;;3.10;99.90;;;;;;4988818;28;20538;-79
2023/01/16 02:38:19;;;;;;;1.23;0.70;;;3.10;99.90;;;;;;5006478;28;20034;-79
2023/01/16 02:40:58;;;;;;;4.00;0.63;;;3.00;99.90;;;;;;5004156;28;20033;-79
2023/01/16 02:43:57;;;;;;;3.58;0.52;;;3.00;99.90;;;;;;5005175;28;20060;-79
2023/01/16 02:46:47;;;;;;;1.73;0.47;;;3.00;99.90;;;;;;5005975;28;20069;-79
2023/01/16 02:49:23;;;;;;;3.08;0.52;;;3.00;99.90;;;;;;4991026;28;20022;-79
2023/01/16 02:52:13;;;;;;;1.45;0.55;;;3.00;99.90;;;;;;5002721;28;20049;-79
2023/01/16 02:54:47;;;;;;;1.92;0.50;;;3.00;99.90;;;;;;4975675;28;20044;-79
2023/01/16 02:57:20;;;;;;;1.65;0.50;;;2.90;99.90;;;;;;5004887;28;20025;-79
2023/01/16 02:59:48;;;;;;;2.33;0.50;;;2.90;99.90;;;;;;4996496;28;20534;-79
2023/01/16 03:02:14;;;;;;;1.95;0.43;;;2.90;99.90;;;;;;4981697;28;20037;-79
2023/01/16 03:04:43;;;;;;;3.55;0.60;;;2.90;99.90;;;;;;5001910;28;20022;-79
2023/01/16 03:07:11;;;;;;;5.15;0.70;;;2.90;99.90;;;;;;5004800;28;20029;-80
2023/01/16 03:09:44;;;;;;;3.03;0.50;;;2.80;99.90;;;;;;5002236;28;20025;-81
2023/01/16 03:12:39;;;;;;;3.03;1.00;;;2.80;99.90;;;;;;5004889;28;20026;-78
2023/01/16 03:15:20;;;;;;;3.97;0.47;;;2.80;99.90;;;;;;4988759;28;20034;-81
2023/01/16 03:18:20;;;;;;;6.57;0.40;;;2.80;99.90;;;;;;5006632;28;20022;-81
2023/01/16 03:21:24;;;;;;;4.40;0.93;;;2.80;99.90;;;;;;5002841;28;20030;-81
2023/01/16 03:23:55;;;;;;;2.05;0.50;;;2.80;99.90;;;;;;5002696;28;20025;-81
2023/01/16 03:26:42;;;;;;;2.80;0.57;;;2.80;99.90;;;;;;5005579;28;20453;-80
2023/01/16 03:29:08;;;;;;;1.77;0.45;;;2.80;99.90;;;;;;4998318;28;20021;-78
2023/01/16 03:31:45;;;;;;;2.08;0.60;;;2.80;99.90;;;;;;5005534;28;20422;-78
2023/01/16 03:34:21;;;;;;;3.47;0.60;;;2.80;99.90;;;;;;5006576;28;20028;-80
2023/01/16 03:36:53;;;;;;;2.15;0.57;;;2.90;99.90;;;;;;4989422;28;20049;-79
2023/01/16 03:39:24;;;;;;;4.75;0.80;;;2.90;99.90;;;;;;4997416;28;20038;-79
2023/01/16 03:41:54;;;;;;;2.00;0.80;;;2.90;99.90;;;;;;5000832;28;20509;-79
2023/01/16 03:44:42;;;;;;;1.95;0.47;;;2.90;99.90;;;;;;4989244;28;20025;-79
2023/01/16 03:47:12;;;;;;;2.03;1.40;;;3.00;99.90;;;;;;4987413;28;20022;-78
2023/01/16 03:49:49;;;;;;;2.88;0.52;;;3.00;99.90;;;;;;4988586;28;20426;-78
2023/01/16 03:52:19;;;;;;;4.65;1.25;;;3.00;99.90;;;;;;4983921;28;20025;-79
2023/01/16 03:54:45;;;;;;;2.85;0.40;;;3.00;99.90;;;;;;5005851;28;20498;-79
2023/01/16 03:57:16;;;;;;;0.93;0.40;;;3.10;99.90;;;;;;5004449;28;20018;-79
2023/01/16 03:59:44;;;;;;;1.42;0.40;;;3.00;99.90;;;;;;5004810;28;20060;-79
2023/01/16 04:02:20;;;;;;;2.97;0.32;;;3.10;99.90;;;;;;4996973;28;20033;-80
2023/01/16 04:05:05;;;;;;;2.15;0.60;;;3.10;99.90;;;;;;4999610;28;20505;-79
2023/01/16 04:07:45;;;;;;;2.88;0.47;;;3.10;99.90;;;;;;4998499;28;20045;-79
2023/01/16 04:10:24;;;;;;;2.72;0.40;;;3.10;99.90;;;;;;5003388;28;20495;-79
2023/01/16 04:13:18;;;;;;;3.90;0.75;;;3.00;99.90;;;;;;5001843;28;20072;-79
2023/01/16 04:15:48;;;;;;;2.72;0.63;;;3.00;99.90;;;;;;4988439;28;20026;-79
2023/01/16 04:18:13;;;;;;;6.50;0.60;;;3.00;99.90;;;;;;5004941;28;20529;-78
2023/01/16 04:20:43;;;;;;;3.10;0.88;;;3.00;99.90;;;;;;4989300;28;20049;-79
2023/01/16 04:23:09;;;;;;;3.17;0.40;;;3.00;99.90;;;;;;5005650;28;20658;-78
2023/01/16 04:25:34;;;;;;;1.80;0.52;;;2.90;99.90;;;;;;5003791;28;20045;-79
2023/01/16 04:28:00;;;;;;;2.28;0.60;;;3.00;99.90;;;;;;5005525;28;20058;-79
2023/01/16 04:30:26;;;;;;;1.83;0.60;;;2.90;99.90;;;;;;5014273;28;20558;-79
2023/01/16 04:32:51;;;;;;;2.28;0.70;;;2.90;99.90;;;;;;5003710;28;20529;-79
2023/01/16 04:35:17;;;;;;;3.00;0.50;;;2.90;99.90;;;;;;5001374;28;20037;-78
2023/01/16 04:37:42;;;;;;;2.50;0.50;;;2.90;99.90;;;;;;4988002;28;20025;-79
2023/01/16 04:40:09;;;;;;;4.43;0.40;;;2.90;99.90;;;;;;5003049;28;20232;-79
2023/01/16 04:42:35;;;;;;;4.32;0.80;;;2.90;99.90;;;;;;5005388;28;20100;-79
2023/01/16 04:45:02;;;;;;;3.85;0.40;;;2.90;99.90;;;;;;5007742;28;20079;-79
2023/01/16 04:47:27;;;;;;;4.32;0.88;;;2.90;99.90;;;;;;5004769;28;20037;-79
2023/01/16 04:49:53;;;;;;;4.03;0.77;;;2.90;99.90;;;;;;5005966;28;20026;-80
2023/01/16 04:52:18;;;;;;;4.15;0.70;;;2.80;99.90;;;;;;5009853;28;20049;-79
2023/01/16 04:54:44;;;;;;;2.47;0.85;;;2.80;99.90;;;;;;5007513;28;20029;-80
2023/01/16 04:57:10;;;;;;;1.35;0.40;;;2.80;99.90;;;;;;4992314;28;20025;-79
2023/01/16 04:59:35;;;;;;;2.08;0.57;;;2.80;99.90;;;;;;4995336;28;20529;-80
2023/01/16 05:02:01;;;;;;;1.88;0.50;;;2.80;99.90;;;;;;5005359;28;20033;-79
2023/01/16 05:04:27;;;;;;;2.33;0.80;;;2.80;99.90;;;;;;5008049;28;20038;-80
2023/01/16 05:06:52;;;;;;;3.45;0.70;;;2.70;99.90;;;;;;5004776;28;20026;-79
2023/01/16 05:09:18;;;;;;;2.20;0.52;;;2.80;99.90;;;;;;5010467;28;20021;-79
2023/01/16 05:11:43;;;;;;;3.05;0.75;;;2.70;99.90;;;;;;5003844;28;20025;-79
2023/01/16 05:14:10;;;;;;;2.08;0.80;;;2.70;99.90;;;;;;5003675;28;20024;-79
2023/01/16 05:16:37;;;;;;;2.88;0.70;;;2.70;99.90;;;;;;5002790;28;20394;-79
2023/01/16 05:19:03;;;;;;;2.08;0.90;;;2.80;99.90;;;;;;5002889;28;20564;-79
2023/01/16 05:21:29;;;;;;;2.28;0.77;;;2.70;99.90;;;;;;4988774;28;20511;-79
2023/01/16 05:23:55;;;;;;;1.85;0.60;;;2.70;99.90;;;;;;4988841;28;20026;-79
2023/01/16 05:26:20;;;;;;;5.97;1.00;;;2.60;99.90;;;;;;5003393;28;20037;-79
2023/01/16 05:28:46;;;;;;;3.17;0.80;;;2.60;99.90;;;;;;5002623;28;20033;-79
2023/01/16 05:31:11;;;;;;;3.47;0.70;;;2.60;99.90;;;;;;4984742;28;20041;-79
2023/01/16 05:33:37;;;;;;;2.42;0.70;;;2.60;99.90;;;;;;4984435;28;20435;-79
2023/01/16 05:36:03;;;;;;;2.15;0.77;;;2.60;99.90;;;;;;5002783;28;20116;-79
2023/01/16 05:38:29;;;;;;;2.08;0.90;;;2.60;99.90;;;;;;5003196;28;20567;-79
2023/01/16 05:40:55;;;;;;;2.00;0.60;;;2.60;99.90;;;;;;4996559;28;20129;-76
2023/01/16 05:43:20;;;;;;;4.85;1.00;;;2.60;99.90;;;;;;4992295;28;20042;-75
2023/01/16 05:45:46;;;;;;;4.45;0.93;;;2.60;99.90;;;;;;5002246;28;20540;-76
2023/01/16 05:48:12;;;;;;;1.23;0.63;;;2.70;99.90;;;;;;5004165;28;20030;-75
2023/01/16 05:50:37;;;;;;;3.53;1.23;;;2.80;99.90;;;;;;4999981;28;21341;-74
2023/01/16 05:53:03;;;;;;;1.33;0.68;;;2.80;99.90;;;;;;4981203;28;20040;-74
2023/01/16 05:55:29;;;;;;;4.30;1.38;;;2.90;99.90;;;;;;5007619;28;20033;-75
2023/01/16 05:57:54;;;;;;;3.63;0.80;;;2.90;99.90;;;;;;5004255;28;20022;-76
2023/01/16 06:00:20;;;;;;;1.38;0.70;;;3.00;99.90;;;;;;4996511;28;20030;-76
2023/01/16 06:02:46;;;;;;;5.05;0.82;;;3.00;99.90;;;;;;5002877;28;20026;-76
2023/01/16 06:05:12;;;;;;;3.30;0.98;;;3.00;99.90;;;;;;5004024;28;20101;-75
2023/01/16 06:07:38;;;;;;;1.63;0.80;;;2.90;99.90;;;;;;5004430;28;20027;-76
2023/01/16 06:10:04;;;;;;;2.22;0.52;;;2.90;99.90;;;;;;4991251;28;20028;-77
2023/01/16 06:12:31;;;;;;;3.88;0.65;;;2.80;99.90;;;;;;5008967;28;20021;-77
2023/01/16 06:14:58;;;;;;;3.50;0.80;;;2.70;99.90;;;;;;5006198;28;20030;-77
2023/01/16 06:17:23;;;;;;;5.00;1.25;;;2.70;99.90;;;;;;5007213;28;20511;-77
2023/01/16 06:19:49;;;;;;;1.92;1.02;;;2.70;99.90;;;;;;5006333;28;20034;-76
2023/01/16 06:22:15;;;;;;;6.20;1.20;;;2.70;99.90;;;;;;5004045;28;20030;-76
2023/01/16 06:24:41;;;;;;;3.50;0.90;;;2.70;99.90;;;;;;5006945;28;20032;-77
2023/01/16 06:27:07;;;;;;;3.58;1.00;;;2.70;99.90;;;;;;5008016;28;20030;-77
2023/01/16 06:29:33;;;;;;;4.20;1.13;;;2.70;99.90;;;;;;5002362;28;20109;-78
2023/01/16 06:31:58;;;;;;;4.53;1.00;;;2.60;99.90;;;;;;5005003;28;20076;-77
2023/01/16 06:34:24;;;;;;;4.80;0.85;;;2.60;99.90;;;;;;5006500;28;20033;-78
2023/01/16 06:36:50;;;;;;;4.32;0.98;;;2.60;99.90;;;;;;5001606;28;20029;-79
2023/01/16 06:39:16;;;;;;;2.50;1.10;;;2.60;99.90;;;;;;5000935;28;20032;-78
2023/01/16 06:41:42;;;;;;;3.58;0.77;;;2.60;99.90;;;;;;5001993;28;20088;-79
2023/01/16 06:44:08;;;;;;;2.28;0.80;;;2.60;99.90;;;;;;5008855;28;20034;-81
2023/01/16 06:46:35;;;;;;;4.15;0.88;;;2.60;99.90;;;;;;5006138;28;20018;-79
2023/01/16 06:49:01;;;;;;;5.03;1.10;;;2.60;99.90;;;;;;4994254;28;20044;-77
2023/01/16 06:51:27;;;;;;;1.95;0.95;;;2.60;99.90;;;;;;4999661;28;20033;-78
2023/01/16 06:53:52;;;;;;;5.40;1.10;;;2.60;99.90;;;;;;5006283;28;20026;-78
2023/01/16 06:56:18;;;;;;;3.55;0.90;;;2.60;99.90;;;;;;5007283;28;20034;-78
2023/01/16 06:58:44;;;;;;;2.33;0.88;;;2.60;99.90;;;;;;5007769;28;20512;-78
2023/01/16 07:01:10;;;;;;;2.65;0.70;;;2.60;99.90;;;;;;5011031;28;20029;-78
2023/01/16 07:03:35;;;;;;;3.40;0.82;;;2.60;99.90;;;;;;5005723;28;20030;-78
2023/01/16 07:06:02;;;;;;;2.80;1.00;;;2.60;99.90;;;;;;5003467;28;20027;-78
2023/01/16 07:08:28;;;;;;;2.03;0.80;;;2.60;99.90;;;;;;5007139;28;20097;-78
2023/01/16 07:10:54;;;;;;;1.38;0.60;;;2.60;99.90;;;;;;5000490;28;20483;-80
2023/01/16 07:13:26;;;;;;;1.60;0.90;;;2.60;99.90;;;;;;4986413;28;20060;-82
2023/01/16 07:24:22;;;;;;;1.55;0.60;;;2.70;99.90;;;;;;5007649;28;20033;-80
2023/01/16 07:26:52;;;;;;;2.28;0.50;;;2.70;99.90;;;;;;4994170;28;20594;-79
2023/01/16 07:29:18;;;;;;;2.00;0.68;;;2.70;99.90;;;;;;5057349;23;20041;-74
2023/01/16 07:31:43;;;;;;;1.48;0.60;;;2.70;99.90;;;;;;5028931;28;20022;-74
2023/01/16 07:34:12;;;;;;;2.05;0.85;;;2.70;99.90;;;;;;5016087;28;20055;-74
2023/01/16 07:36:37;;;;;;;5.07;0.63;;;2.70;99.90;;;;;;5023748;28;20452;-74
2023/01/16 07:39:12;;;;;;;2.50;0.63;;;2.70;99.90;;;;;;5022296;28;20049;-73
2023/01/16 07:41:38;;;;;;;1.95;0.50;;;2.70;99.90;;;;;;5019103;28;20033;-73
2023/01/16 07:44:03;;;;;;;1.48;0.60;;;2.70;99.90;;;;;;5011486;28;20478;-74
2023/01/16 07:46:29;;;;;;;2.75;0.60;;;2.70;99.90;;;;;;5013655;28;20081;-74
2023/01/16 07:48:56;;;;;;;4.72;0.52;;;2.70;99.90;;;;;;5008993;28;20124;-74
2023/01/16 07:51:22;;;;;;;1.48;0.82;;;2.80;99.90;;;;;;5013259;28;20486;-74
2023/01/16 07:53:48;;;;;;;3.97;0.63;;;2.80;99.90;;;;;;5013278;28;20032;-74
2023/01/16 07:56:13;;;;;;;1.50;0.50;;;2.80;99.90;;;;;;5012214;28;20030;-73
2023/01/16 07:58:43;;;;;;;3.90;0.55;;;2.80;99.90;;;;;;5015556;28;20042;-73
2023/01/16 08:01:09;;;;;;;2.35;0.60;;;2.80;99.90;;;;;;5013014;28;20478;-74
2023/01/16 08:03:36;;;;;;;0.90;0.32;;;2.90;99.90;;;;;;5014986;28;20160;-74
2023/01/16 08:06:02;;;;;;;3.30;0.60;;;2.90;99.90;;;;;;5012661;28;20057;-74
2023/01/16 08:08:31;;;;;;;3.05;0.63;;;2.90;99.90;;;;;;5015201;28;20516;-74
2023/01/16 08:10:59;;;;;;;1.63;0.55;;;2.90;99.90;;;;;;5007362;28;20026;-73
2023/01/16 08:13:40;;;;;;;3.83;0.90;;;2.90;99.90;;;;;;5015525;28;20194;-74
2023/01/16 08:16:06;;;;;;;2.78;0.60;;;2.90;99.90;;;;;;5011111;28;20137;-75
2023/01/16 08:18:31;;;;;;;3.60;1.02;;;2.90;99.90;;;;;;5020216;28;20044;-73
2023/01/16 08:20:59;;;;;;;1.05;0.60;;;3.00;99.90;;;;;;5011255;28;20036;-73
2023/01/16 08:23:28;;;;;;;2.65;0.60;;;2.90;99.90;;;;;;5010930;28;20068;-73
2023/01/16 08:25:54;;;;;;;4.43;1.15;;;2.90;99.90;;;;;;5016315;28;20065;-73
2023/01/16 08:28:19;;;;;;;1.60;0.68;;;2.90;99.90;;;;;;5018610;28;20516;-73
2023/01/16 08:30:45;;;;;;;1.15;0.68;;;3.00;99.90;;;;;;5020276;28;20104;-73
2023/01/16 08:33:10;;;;;;;1.98;0.60;;;3.00;99.90;;;;;;5012033;28;20026;-73
2023/01/16 08:35:36;;;;;;;2.88;0.60;;;3.00;99.90;;;;;;5015908;28;20397;-73
2023/01/16 08:38:02;;;;;;;3.83;0.90;;;3.10;99.90;;;;;;5026363;28;20030;-74
2023/01/16 08:40:28;;;;;;;1.80;0.77;;;3.10;99.90;;;;;;5015111;28;20025;-75
2023/01/16 08:51:24;;;;;;;1.55;0.90;;;3.20;99.90;;;;;;5011451;28;20037;-76
2023/01/16 08:53:55;;;;;;;1.23;0.65;;;3.20;99.90;;;;;;5019458;28;20018;-75
2023/01/16 08:56:21;;;;;;;3.78;0.68;;;3.20;99.90;;;;;;5009024;28;20050;-75
2023/01/16 08:58:47;;;;;;;6.55;1.02;;;3.20;99.90;;;;;;5018799;28;20030;-75
2023/01/16 09:01:13;;;;;;;1.50;0.70;;;3.20;99.90;;;;;;5008691;28;20033;-75
2023/01/16 09:03:39;;;;;;;3.88;0.80;;;3.30;99.90;;;;;;5008908;28;20405;-76
2023/01/16 09:06:05;;;;;;;2.58;0.50;;;3.30;99.90;;;;;;5009877;28;20113;-73
2023/01/16 09:08:30;;;;;;;1.15;0.50;;;3.30;99.90;;;;;;5013975;28;20026;-76
2023/01/16 09:13:49;;;;;;;1.25;0.70;;;3.30;99.90;;;;;;5009474;28;20029;-76
2023/01/16 09:16:24;;;;;;;3.67;0.93;;;3.40;99.90;;;;;;5010562;28;20033;-76
2023/01/16 09:18:51;;;;;;;1.35;0.50;;;3.40;99.90;;;;;;5006966;28;20518;-76
2023/01/16 09:21:18;;;;;;;2.22;0.55;;;3.40;99.90;;;;;;5012084;28;20121;-75
2023/01/16 09:23:45;;;;;;;1.55;0.55;;;3.40;99.90;;;;;;5011954;28;20085;-75
2023/01/16 09:26:11;;;;;;;0.63;0.30;;;3.50;99.90;;;;;;5011046;28;20029;-75
2023/01/16 09:28:36;;;;;;;1.63;0.52;;;3.50;99.90;;;;;;5017943;28;20040;-76
2023/01/16 09:31:02;;;;;;;2.72;0.50;;;3.50;99.90;;;;;;5014524;28;20077;-75
2023/01/16 09:33:28;;;;;;;1.42;0.50;;;3.50;99.90;;;;;;5015964;28;20022;-75
2023/01/16 09:35:54;;;;;;;1.08;0.43;;;3.50;99.90;;;;;;5014267;28;20026;-75
2023/01/16 09:38:20;;;;;;;1.48;0.47;;;3.50;99.90;;;;;;5014709;28;20081;-74
2023/01/16 09:40:49;;;;;;;1.92;0.95;;;3.60;99.90;;;;;;5017805;28;20076;-75
2023/01/16 09:43:37;;;;;;;2.83;0.60;;;3.60;99.90;;;;;;5015983;28;20088;-75
2023/01/16 09:46:09;;;;;;;1.45;0.57;;;3.60;99.90;;;;;;5024866;28;20021;-75
2023/01/16 09:48:50;;;;;;;0.80;0.55;;;3.70;99.90;;;;;;5015075;28;20490;-75
2023/01/16 09:51:24;;;;;;;4.40;0.57;;;3.70;99.90;;;;;;5017497;28;20026;-75
2023/01/16 09:59:46;;;;;;;2.25;0.88;;;3.80;99.90;;;;;;5015562;28;20068;-75
2023/01/16 10:02:23;;;;;;;2.83;1.00;;;3.90;99.90;;;;;;5014449;28;20559;-75
2023/01/16 10:04:51;;;;;;;1.05;0.50;;;3.90;99.90;;;;;;5010694;28;20034;-75
2023/01/16 10:07:16;;;;;;;1.65;0.60;;;4.00;99.90;;;;;;5019637;28;20496;-75
2023/01/16 10:09:51;;;;;;;1.75;0.70;;;4.00;99.90;;;;;;5018431;28;20076;-76
2023/01/16 10:12:18;;;;;;;0.65;0.40;;;4.00;99.90;;;;;;5014160;28;20017;-76
2023/01/16 10:14:44;;;;;;;1.30;0.50;;;4.10;99.90;;;;;;5020118;28;20022;-76
2023/01/16 10:17:36;;;;;;;1.25;0.47;;;4.20;99.90;;;;;;5015088;28;20018;-76
2023/01/16 10:20:04;;;;;;;1.55;0.55;;;4.30;99.90;;;;;;5007449;28;20402;-75
2023/01/16 10:23:11;;;;;;;1.38;0.45;;;4.40;99.90;;;;;;5014462;28;20036;-76
2023/01/16 10:26:02;;;;;;;2.10;0.65;;;4.40;99.90;;;;;;5001973;28;20088;-76
2023/01/16 10:28:43;;;;;;;2.78;0.80;;;4.50;99.90;;;;;;5012899;28;20065;-76
2023/01/16 10:31:20;;;;;;;1.42;0.50;;;4.50;99.90;;;;;;5013696;28;20030;-76
2023/01/16 10:34:02;;;;;;;2.95;0.50;;;4.60;99.90;;;;;;5014702;28;20104;-76
2023/01/16 10:36:35;;;;;;;3.85;0.60;;;4.70;99.90;;;;;;5012929;28;20390;-76
2023/01/16 10:39:02;;;;;;;0.85;0.40;;;4.80;99.90;;;;;;5013380;28;20463;-76
2023/01/16 10:50:14;;;;;;;0.68;0.40;;;5.00;99.90;;;;;;5014122;28;20528;-76
2023/01/16 10:52:40;;;;;;;1.15;0.25;;;5.10;99.90;;;;;;5012874;28;20018;-76
2023/01/16 10:55:07;;;;;;;0.90;0.30;;;5.10;99.90;;;;;;5018660;28;20029;-75
2023/01/16 10:57:33;;;;;;;2.33;0.65;;;5.20;99.90;;;;;;5014813;28;20069;-75
2023/01/16 11:00:08;;;;;;;2.22;0.50;;;5.20;99.90;;;;;;5012842;28;20033;-75
2023/01/16 11:02:39;;;;;;;0.93;0.40;;;5.30;99.90;;;;;;5012861;28;20025;-75
2023/01/16 11:05:24;;;;;;;0.52;0.30;;;5.30;99.90;;;;;;5012073;28;20037;-75
2023/01/16 11:07:55;;;;;;;2.22;0.50;;;5.30;99.90;;;;;;5008143;28;20049;-74
2023/01/16 11:10:22;;;;;;;1.35;0.30;;;5.30;99.90;;;;;;5012325;28;20056;-74
2023/01/16 11:18:33;;;;;;;1.05;0.40;;;5.20;99.90;;;;;;5014265;28;20594;-74
2023/01/16 11:21:12;;;;;;;1.10;0.47;;;5.20;99.90;;;;;;5012979;28;20029;-74
2023/01/16 11:23:41;;;;;;;1.10;0.50;;;5.20;99.90;;;;;;5014404;28;20032;-74
2023/01/16 11:26:09;;;;;;;1.75;0.40;;;5.10;99.90;;;;;;5012818;28;20038;-74
2023/01/16 11:28:35;;;;;;;1.45;0.55;;;5.10;99.90;;;;;;5013037;28;20109;-75
2023/01/16 11:31:09;;;;;;;1.63;0.50;;;5.10;99.90;;;;;;5013851;28;20109;-75
2023/01/16 11:33:39;;;;;;;0.90;0.40;;;5.00;99.90;;;;;;5012460;28;20085;-75
2023/01/16 11:36:07;;;;;;;1.77;0.63;;;5.00;99.90;;;;;;5004814;28;20033;-75
2023/01/16 11:38:37;;;;;;;1.95;0.60;;;4.90;99.90;;;;;;5011691;28;20116;-75
2023/01/16 11:41:06;;;;;;;2.38;0.75;;;4.90;99.90;;;;;;5017748;28;20036;-74
2023/01/16 11:46:29;;;;;;;2.42;0.63;;;5.00;99.90;;;;;;5010206;28;20041;-74
2023/01/16 11:49:02;;;;;;;3.22;0.45;;;5.00;99.90;;;;;;5012063;28;20382;-75
2023/01/16 11:51:30;;;;;;;1.95;0.70;;;5.10;99.90;;;;;;5012118;28;20022;-75
2023/01/16 11:53:58;;;;;;;1.23;0.50;;;5.10;99.90;;;;;;5012570;28;20095;-74
2023/01/16 11:56:36;;;;;;;2.53;1.00;;;5.10;99.90;;;;;;5014622;28;20029;-75
2023/01/16 11:59:19;;;;;;;1.05;0.40;;;5.10;99.90;;;;;;5017056;28;20120;-75
2023/01/16 12:04:40;;;;;;;1.23;0.50;;;5.20;99.90;;;;;;5001612;28;20147;-75
2023/01/16 12:07:22;;;;;;;1.63;0.70;;;5.20;99.90;;;;;;5008900;28;20034;-74
2023/01/16 12:10:04;;;;;;;1.65;0.80;;;5.20;99.90;;;;;;5007255;28;20561;-75
2023/01/16 12:15:57;;;;;;;1.27;0.57;;;5.30;99.90;;;;;;5009830;28;20033;-75
2023/01/16 12:18:23;;;;;;;2.00;0.40;;;5.40;99.90;;;;;;4998011;28;20061;-76
2023/01/16 12:20:52;;;;;;;1.05;0.38;;;5.40;99.90;;;;;;5013836;28;20018;-76
2023/01/16 12:23:30;;;;;;;1.75;0.40;;;5.40;99.90;;;;;;5012853;28;20053;-76
2023/01/16 12:26:29;;;;;;;1.15;0.30;;;5.50;99.90;;;;;;5012896;28;20058;-76
2023/01/16 12:29:10;;;;;;;1.77;0.40;;;5.50;99.90;;;;;;4984234;28;20100;-76
2023/01/16 12:31:44;;;;;;;0.50;0.30;;;5.50;99.90;;;;;;5006908;28;20060;-75
2023/01/16 12:34:30;;;;;;;1.27;0.52;;;5.60;99.90;;;;;;5007978;28;20072;-75
2023/01/16 12:37:12;;;;;;;3.50;0.65;;;5.60;99.90;;;;;;5011903;28;20057;-74
2023/01/16 12:39:45;;;;;;;1.33;0.57;;;5.60;99.90;;;;;;5012864;28;20532;-74
2023/01/16 12:46:00;;;;;;;2.67;0.75;;;5.60;99.90;;;;;;5012068;28;20395;-74
2023/01/16 12:48:28;;;;;;;1.10;0.40;;;5.70;99.90;;;;;;5037339;28;20034;-74
2023/01/16 12:50:54;;;;;;;1.85;0.45;;;5.70;99.90;;;;;;4998863;28;20113;-75
2023/01/16 12:53:40;;;;;;;0.52;0.30;;;5.80;99.90;;;;;;5008243;28;20061;-75
2023/01/16 12:56:09;;;;;;;1.85;0.47;;;5.80;99.90;;;;;;5010905;28;20099;-76
2023/01/16 12:58:44;;;;;;;0.63;0.22;;;5.80;99.90;;;;;;5011057;28;20029;-75
2023/01/16 13:01:22;;;;;;;0.75;0.30;;;5.90;99.90;;;;;;5002212;28;20030;-75
2023/01/16 13:03:57;;;;;;;0.75;0.40;;;5.90;99.90;;;;;;5015282;28;20033;-75
2023/01/16 13:06:39;;;;;;;0.70;0.35;;;5.90;99.90;;;;;;5013197;28;20037;-76
2023/01/16 13:09:19;;;;;;;0.52;0.30;;;5.90;99.90;;;;;;5009987;28;20028;-75
2023/01/16 13:14:45;;;;;;;0.30;0.20;;;5.90;99.90;;;;;;5013822;28;20029;-75
2023/01/16 13:17:17;;;;;;;1.98;0.70;;;6.00;99.90;;;;;;5015709;28;20104;-75
2023/01/16 13:19:44;;;;;;;0.70;0.30;;;5.90;99.90;;;;;;5014896;28;20509;-76
2023/01/16 13:22:25;;;;;;;2.60;0.40;;;5.90;99.90;;;;;;5015309;28;20487;-74
2023/01/16 13:25:04;;;;;;;0.77;0.40;;;5.90;99.90;;;;;;5015759;28;20525;-74
2023/01/16 13:27:44;;;;;;;0.57;0.32;;;6.00;99.90;;;;;;5012808;28;20022;-75
2023/01/16 13:30:16;;;;;;;0.30;0.20;;;6.00;99.90;;;;;;5012034;28;20109;-75
2023/01/16 13:32:51;;;;;;;0.63;0.40;;;6.10;99.90;;;;;;5015667;28;20044;-75
2023/01/16 13:35:34;;;;;;;0.47;0.20;;;6.10;99.90;;;;;;5007629;28;20028;-75
2023/01/16 13:38:35;;;;;;;0.40;0.30;;;6.20;99.90;;;;;;5010620;28;20022;-75
2023/01/16 13:41:29;;;;;;;0.55;0.30;;;6.40;99.90;;;;;;5017497;28;20018;-75
2023/01/16 13:46:48;;;;;;;0.80;0.30;;;6.50;99.90;;;;;;5012373;28;20097;-73
2023/01/16 13:49:24;;;;;;;0.85;0.40;;;6.50;99.90;;;;;;5009214;28;20478;-74
2023/01/16 13:51:52;;;;;;;0.88;0.30;;;6.50;99.90;;;;;;5010336;28;21799;-75
2023/01/16 13:54:41;;;;;;;0.60;0.20;;;6.40;99.90;;;;;;4997117;28;20026;-74
2023/01/16 13:57:35;;;;;;;0.70;0.50;;;6.40;99.90;;;;;;5006720;28;20026;-74
2023/01/16 14:00:12;;;;;;;0.35;0.30;;;6.20;99.90;;;;;;5009880;28;20025;-74
2023/01/16 14:02:44;;;;;;;2.40;0.30;;;6.20;99.90;;;;;;5012823;28;20041;-73
2023/01/16 14:05:44;;;;;;;1.30;0.40;;;6.10;99.90;;;;;;5009441;28;20422;-75
2023/01/16 14:12:06;;;;;;;1.60;0.60;;;6.00;99.90;;;;;;5009964;28;20095;-75
2023/01/16 14:17:55;;;;;;;2.15;0.40;;;6.00;99.90;;;;;;5011825;28;20032;-72
2023/01/16 14:20:44;;;;;;;0.65;0.40;;;6.00;99.90;;;;;;5009446;28;20030;-75
2023/01/16 14:26:08;;;;;;;3.70;0.40;;;5.90;99.90;;;;;;5008988;28;20088;-73
2023/01/16 14:28:34;;;;;;;0.90;0.32;;;5.80;99.90;;;;;;5009581;28;20056;-74
2023/01/16 14:31:01;;;;;;;1.95;0.50;;;5.80;99.90;;;;;;5007754;28;20054;-73
2023/01/16 14:33:28;;;;;;;2.63;0.60;;;5.80;99.90;;;;;;4993666;28;20022;-74